createdAt,value
2018-06-29T00:00:47.430Z,2.20
2018-06-29T00:01:47.467Z,2.20
2018-06-29T00:02:47.513Z,2.20
2018-06-29T00:03:47.551Z,2.20
2018-06-29T00:04:47.556Z,2.20
2018-06-29T00:05:47.434Z,2.20
2018-06-29T00:06:47.531Z,1.70
2018-06-29T00:07:47.545Z,1.70
2018-06-29T00:08:47.483Z,1.70
2018-06-29T00:09:47.600Z,1.70
2018-06-29T00:10:47.597Z,1.70
2018-06-29T00:11:47.508Z,1.70
2018-06-29T00:12:47.590Z,1.70
2018-06-29T00:13:47.571Z,1.70
2018-06-29T00:14:47.540Z,1.70
2018-06-29T00:15:47.509Z,1.70
2018-06-29T00:16:47.595Z,1.70
2018-06-29T00:17:47.608Z,1.70
2018-06-29T00:18:47.570Z,1.70
2018-06-29T00:19:47.613Z,1.70
2018-06-29T00:20:47.595Z,1.70
2018-06-29T00:21:47.575Z,1.70
2018-06-29T00:22:47.482Z,1.70
2018-06-29T00:23:47.539Z,1.70
2018-06-29T00:24:47.612Z,1.70
2018-06-29T00:25:47.579Z,1.70
2018-06-29T00:26:47.494Z,1.70
2018-06-29T00:27:47.518Z,1.70
2018-06-29T00:28:47.504Z,1.70
2018-06-29T00:29:47.547Z,1.70
2018-06-29T00:30:47.603Z,1.70
2018-06-29T00:31:47.554Z,1.70
2018-06-29T00:32:47.628Z,1.70
2018-06-29T00:33:47.621Z,1.70
2018-06-29T00:34:47.503Z,1.70
2018-06-29T00:35:47.563Z,1.70
2018-06-29T00:36:47.601Z,1.70
2018-06-29T00:37:47.522Z,1.70
2018-06-29T00:38:47.562Z,1.70
2018-06-29T00:39:47.525Z,1.70
2018-06-29T00:40:47.609Z,1.70
2018-06-29T00:41:47.552Z,1.70
2018-06-29T00:42:47.588Z,1.70
2018-06-29T00:43:47.664Z,1.70
2018-06-29T00:44:47.649Z,1.70
2018-06-29T00:45:47.594Z,1.70
2018-06-29T00:46:47.700Z,1.50
2018-06-29T00:47:47.556Z,1.50
2018-06-29T00:48:47.563Z,1.50
2018-06-29T00:49:47.591Z,1.50
2018-06-29T00:50:47.649Z,1.50
2018-06-29T00:51:47.564Z,1.50
2018-06-29T00:52:47.553Z,1.50
2018-06-29T00:53:47.593Z,1.50
2018-06-29T00:54:47.621Z,1.50
2018-06-29T00:55:47.560Z,1.50
2018-06-29T00:56:47.631Z,1.80
2018-06-29T00:57:47.515Z,1.80
2018-06-29T00:58:47.600Z,1.80
2018-06-29T00:59:47.563Z,1.80
2018-06-29T01:00:47.528Z,1.80
2018-06-29T01:01:47.630Z,1.80
2018-06-29T01:02:47.637Z,1.80
2018-06-29T01:03:47.658Z,1.80
2018-06-29T01:04:47.606Z,1.80
2018-06-29T01:05:47.529Z,1.80
2018-06-29T01:06:47.640Z,1.60
2018-06-29T01:07:47.651Z,1.60
2018-06-29T01:08:47.603Z,1.60
2018-06-29T01:09:47.574Z,1.60
2018-06-29T01:10:47.642Z,1.60
2018-06-29T01:11:47.572Z,1.60
2018-06-29T01:12:47.603Z,1.60
2018-06-29T01:13:47.526Z,1.60
2018-06-29T01:14:47.609Z,1.60
2018-06-29T01:15:47.609Z,1.60
2018-06-29T01:16:47.672Z,1.50
2018-06-29T01:17:47.606Z,1.50
2018-06-29T01:18:47.510Z,1.50
2018-06-29T01:19:47.549Z,1.50
2018-06-29T01:20:47.554Z,1.50
2018-06-29T01:21:47.648Z,1.50
2018-06-29T01:22:47.537Z,1.50
2018-06-29T01:23:47.643Z,1.50
2018-06-29T01:24:47.589Z,1.50
2018-06-29T01:25:47.645Z,1.50
2018-06-29T01:26:47.588Z,1.70
2018-06-29T01:27:47.644Z,1.70
2018-06-29T01:28:47.579Z,1.70
2018-06-29T01:29:47.680Z,1.70
2018-06-29T01:30:47.560Z,1.70
2018-06-29T01:31:47.619Z,1.70
2018-06-29T01:32:47.651Z,1.70
2018-06-29T01:33:47.582Z,1.70
2018-06-29T01:34:47.588Z,1.70
2018-06-29T01:35:47.594Z,1.70
2018-06-29T01:36:47.616Z,1.80
2018-06-29T01:37:47.543Z,1.80
2018-06-29T01:38:47.620Z,1.80
2018-06-29T01:39:47.618Z,1.80
2018-06-29T01:40:47.545Z,1.80
2018-06-29T01:41:47.545Z,1.80
2018-06-29T01:42:47.620Z,1.80
2018-06-29T01:43:47.549Z,1.80
2018-06-29T01:44:47.535Z,1.80
2018-06-29T01:45:47.506Z,1.80
2018-06-29T01:46:47.604Z,1.80
2018-06-29T01:47:47.648Z,1.80
2018-06-29T01:48:47.605Z,1.80
2018-06-29T01:49:47.632Z,1.80
2018-06-29T01:50:47.634Z,1.80
2018-06-29T01:51:47.560Z,1.80
2018-06-29T01:52:47.676Z,1.80
2018-06-29T01:53:47.636Z,1.80
2018-06-29T01:54:47.662Z,1.80
2018-06-29T01:55:47.660Z,1.80
2018-06-29T01:56:47.544Z,1.70
2018-06-29T01:57:47.605Z,1.70
2018-06-29T01:58:47.678Z,1.70
2018-06-29T01:59:47.673Z,1.70
2018-06-29T02:00:47.618Z,1.70
2018-06-29T02:01:47.636Z,1.70
2018-06-29T02:02:47.639Z,1.70
2018-06-29T02:03:47.560Z,1.70
2018-06-29T02:04:47.644Z,1.70
2018-06-29T02:05:47.562Z,1.70
2018-06-29T02:06:47.673Z,1.90
2018-06-29T02:07:47.619Z,1.90
2018-06-29T02:08:47.673Z,1.90
2018-06-29T02:09:47.675Z,1.90
2018-06-29T02:10:47.546Z,1.90
2018-06-29T02:11:47.703Z,1.90
2018-06-29T02:12:47.615Z,1.90
2018-06-29T02:13:47.689Z,1.90
2018-06-29T02:14:47.618Z,1.90
2018-06-29T02:15:47.619Z,1.90
2018-06-29T02:16:47.670Z,2.00
2018-06-29T02:17:47.578Z,2.00
2018-06-29T02:18:47.643Z,2.00
2018-06-29T02:19:47.575Z,2.00
2018-06-29T02:20:47.571Z,2.00
2018-06-29T02:21:47.578Z,2.00
2018-06-29T02:22:47.573Z,2.00
2018-06-29T02:23:47.580Z,2.00
2018-06-29T02:24:47.652Z,2.00
2018-06-29T02:25:47.641Z,2.00
2018-06-29T02:26:47.649Z,2.00
2018-06-29T02:27:47.596Z,2.20
2018-06-29T02:28:47.659Z,2.20
2018-06-29T02:29:47.595Z,2.20
2018-06-29T02:30:47.730Z,2.20
2018-06-29T02:31:47.660Z,2.20
2018-06-29T02:32:47.593Z,2.20
2018-06-29T02:33:47.664Z,2.20
2018-06-29T02:34:47.663Z,2.20
2018-06-29T02:35:47.601Z,2.20
2018-06-29T02:36:47.612Z,2.20
2018-06-29T02:37:47.583Z,2.60
2018-06-29T02:38:47.694Z,2.60
2018-06-29T02:39:47.701Z,2.60
2018-06-29T02:40:47.706Z,2.60
2018-06-29T02:41:47.707Z,2.60
2018-06-29T02:42:47.693Z,2.60
2018-06-29T02:43:47.583Z,2.60
2018-06-29T02:44:47.592Z,2.60
2018-06-29T02:45:47.707Z,2.60
2018-06-29T02:46:47.707Z,2.60
2018-06-29T02:47:47.575Z,2.20
2018-06-29T02:48:47.710Z,2.20
2018-06-29T02:49:47.610Z,2.20
2018-06-29T02:50:47.671Z,2.20
2018-06-29T02:51:47.648Z,2.20
2018-06-29T02:52:47.641Z,2.20
2018-06-29T02:53:47.574Z,2.20
2018-06-29T02:54:47.713Z,2.20
2018-06-29T02:55:47.627Z,2.20
2018-06-29T02:56:47.702Z,2.20
2018-06-29T02:57:47.671Z,2.00
2018-06-29T02:58:47.671Z,2.00
2018-06-29T02:59:47.596Z,2.00
2018-06-29T03:00:47.591Z,2.00
2018-06-29T03:01:47.597Z,2.00
2018-06-29T03:02:47.674Z,2.00
2018-06-29T03:03:47.673Z,2.00
2018-06-29T03:04:47.619Z,2.00
2018-06-29T03:05:47.676Z,2.00
2018-06-29T03:06:47.628Z,2.00
2018-06-29T03:07:47.600Z,2.00
2018-06-29T03:08:47.558Z,2.00
2018-06-29T03:09:47.556Z,2.00
2018-06-29T03:10:47.683Z,2.00
2018-06-29T03:11:47.605Z,2.00
2018-06-29T03:12:47.677Z,2.00
2018-06-29T03:13:47.675Z,2.00
2018-06-29T03:14:47.614Z,2.00
2018-06-29T03:15:47.679Z,2.00
2018-06-29T03:16:47.596Z,2.00
2018-06-29T03:17:47.611Z,2.20
2018-06-29T03:18:47.671Z,2.20
2018-06-29T03:19:47.718Z,2.20
2018-06-29T03:20:47.612Z,2.20
2018-06-29T03:21:47.752Z,2.20
2018-06-29T03:22:47.647Z,2.20
2018-06-29T03:23:47.746Z,2.20
2018-06-29T03:24:47.599Z,2.20
2018-06-29T03:25:47.732Z,2.20
2018-06-29T03:26:47.668Z,2.20
2018-06-29T03:27:47.639Z,1.80
2018-06-29T03:28:47.636Z,1.80
2018-06-29T03:29:47.637Z,1.80
2018-06-29T03:30:47.720Z,1.80
2018-06-29T03:31:47.697Z,1.80
2018-06-29T03:32:47.655Z,1.80
2018-06-29T03:33:47.729Z,1.80
2018-06-29T03:34:47.700Z,1.80
2018-06-29T03:35:47.671Z,1.80
2018-06-29T03:36:47.622Z,1.80
2018-06-29T03:37:47.698Z,2.40
2018-06-29T03:38:47.705Z,2.40
2018-06-29T03:39:47.638Z,2.40
2018-06-29T03:40:47.716Z,2.40
2018-06-29T03:41:47.734Z,2.40
2018-06-29T03:42:47.641Z,2.40
2018-06-29T03:43:47.703Z,2.40
2018-06-29T03:44:47.651Z,2.40
2018-06-29T03:45:47.639Z,2.40
2018-06-29T03:46:47.640Z,2.40
2018-06-29T03:47:47.627Z,2.99
2018-06-29T03:48:47.732Z,2.99
2018-06-29T03:49:47.613Z,2.99
2018-06-29T03:50:47.581Z,2.99
2018-06-29T03:51:47.617Z,2.99
2018-06-29T03:52:47.703Z,2.99
2018-06-29T03:53:47.639Z,2.99
2018-06-29T03:54:47.647Z,2.99
2018-06-29T03:55:47.707Z,2.99
2018-06-29T03:56:47.588Z,2.99
2018-06-29T03:57:47.662Z,2.00
2018-06-29T03:58:47.661Z,2.00
2018-06-29T03:59:47.741Z,2.00
2018-06-29T04:00:47.616Z,2.00
2018-06-29T04:01:47.568Z,2.00
2018-06-29T04:02:47.615Z,2.00
2018-06-29T04:03:47.663Z,2.00
2018-06-29T04:04:47.572Z,2.00
2018-06-29T04:05:47.619Z,2.00
2018-06-29T04:06:47.577Z,2.00
2018-06-29T04:07:47.606Z,2.99
2018-06-29T04:08:47.623Z,2.99
2018-06-29T04:09:47.729Z,2.99
2018-06-29T04:10:47.715Z,2.99
2018-06-29T04:11:47.612Z,2.99
2018-06-29T04:12:47.752Z,2.99
2018-06-29T04:13:47.712Z,2.99
2018-06-29T04:14:47.716Z,2.99
2018-06-29T04:15:47.681Z,2.99
2018-06-29T04:16:47.664Z,2.99
2018-06-29T04:17:47.729Z,2.30
2018-06-29T04:18:47.659Z,2.30
2018-06-29T04:19:47.662Z,2.30
2018-06-29T04:20:47.727Z,2.30
2018-06-29T04:21:47.727Z,2.30
2018-06-29T04:22:47.664Z,2.30
2018-06-29T04:23:47.671Z,2.30
2018-06-29T04:24:47.825Z,2.30
2018-06-29T04:25:47.667Z,2.30
2018-06-29T04:26:47.732Z,2.30
2018-06-29T04:27:47.673Z,2.30
2018-06-29T04:28:47.642Z,2.30
2018-06-29T04:29:47.639Z,2.30
2018-06-29T04:30:47.656Z,2.30
2018-06-29T04:31:47.771Z,2.30
2018-06-29T04:32:47.750Z,2.30
2018-06-29T04:33:47.640Z,2.30
2018-06-29T04:34:47.699Z,2.30
2018-06-29T04:35:47.778Z,2.30
2018-06-29T04:36:47.773Z,2.30
2018-06-29T04:37:47.677Z,2.30
2018-06-29T04:38:47.740Z,2.30
2018-06-29T04:39:47.678Z,2.30
2018-06-29T04:40:47.740Z,2.30
2018-06-29T04:41:47.680Z,2.30
2018-06-29T04:42:47.731Z,2.30
2018-06-29T04:43:47.741Z,2.30
2018-06-29T04:44:47.708Z,2.30
2018-06-29T04:45:47.685Z,2.30
2018-06-29T04:46:47.745Z,2.30
2018-06-29T04:47:47.650Z,2.60
2018-06-29T04:48:47.741Z,2.60
2018-06-29T04:49:47.693Z,2.60
2018-06-29T04:50:47.684Z,2.60
2018-06-29T04:51:47.687Z,2.60
2018-06-29T04:52:47.736Z,2.60
2018-06-29T04:53:47.687Z,2.60
2018-06-29T04:54:47.625Z,2.60
2018-06-29T04:55:47.740Z,2.60
2018-06-29T04:56:47.739Z,2.60
2018-06-29T04:57:47.722Z,2.30
2018-06-29T04:58:47.659Z,2.30
2018-06-29T04:59:47.755Z,2.30
2018-06-29T05:00:47.727Z,2.30
2018-06-29T05:01:47.779Z,2.30
2018-06-29T05:02:47.757Z,2.30
2018-06-29T05:03:47.695Z,2.30
2018-06-29T05:04:47.718Z,2.30
2018-06-29T05:05:47.738Z,2.30
2018-06-29T05:06:47.728Z,2.30
2018-06-29T05:07:47.731Z,2.50
2018-06-29T05:08:47.660Z,2.50
2018-06-29T05:09:47.663Z,2.50
2018-06-29T05:10:47.727Z,2.50
2018-06-29T05:11:47.745Z,2.50
2018-06-29T05:12:47.762Z,2.50
2018-06-29T05:13:47.705Z,2.50
2018-06-29T05:14:47.764Z,2.50
2018-06-29T05:15:47.732Z,2.50
2018-06-29T05:16:47.804Z,2.50
2018-06-29T05:17:47.701Z,2.99
2018-06-29T05:18:47.701Z,2.99
2018-06-29T05:19:47.748Z,2.99
2018-06-29T05:20:47.703Z,2.99
2018-06-29T05:21:47.806Z,2.99
2018-06-29T05:22:47.770Z,2.99
2018-06-29T05:23:47.802Z,2.99
2018-06-29T05:24:47.771Z,2.99
2018-06-29T05:25:47.771Z,2.99
2018-06-29T05:26:47.773Z,2.99
2018-06-29T05:27:47.713Z,2.50
2018-06-29T05:28:47.728Z,2.50
2018-06-29T05:29:47.799Z,2.50
2018-06-29T05:30:47.731Z,2.50
2018-06-29T05:31:47.748Z,2.50
2018-06-29T05:32:47.772Z,2.50
2018-06-29T05:33:47.744Z,2.50
2018-06-29T05:34:47.751Z,2.50
2018-06-29T05:35:47.864Z,2.50
2018-06-29T05:36:47.685Z,2.50
2018-06-29T05:37:47.733Z,2.30
2018-06-29T05:38:47.732Z,2.30
2018-06-29T05:39:47.681Z,2.30
2018-06-29T05:40:47.680Z,2.30
2018-06-29T05:41:47.750Z,2.30
2018-06-29T05:42:47.738Z,2.30
2018-06-29T05:43:47.655Z,2.30
2018-06-29T05:44:47.718Z,2.30
2018-06-29T05:45:47.749Z,2.30
2018-06-29T05:46:47.768Z,2.30
2018-06-29T05:47:47.830Z,1.70
2018-06-29T05:48:47.767Z,1.70
2018-06-29T05:49:47.756Z,1.70
2018-06-29T05:50:47.784Z,1.70
2018-06-29T05:51:47.821Z,1.70
2018-06-29T05:52:47.768Z,1.70
2018-06-29T05:53:47.689Z,1.70
2018-06-29T05:54:47.820Z,1.70
2018-06-29T05:55:47.757Z,1.70
2018-06-29T05:56:47.809Z,1.70
2018-06-29T05:57:47.812Z,1.30
2018-06-29T05:58:47.768Z,1.30
2018-06-29T05:59:47.722Z,1.30
2018-06-29T06:00:47.773Z,1.30
2018-06-29T06:01:47.768Z,1.30
2018-06-29T06:02:47.797Z,1.30
2018-06-29T06:03:47.710Z,1.30
2018-06-29T06:04:47.868Z,1.30
2018-06-29T06:05:47.724Z,1.30
2018-06-29T06:06:47.823Z,1.30
2018-06-29T06:07:47.767Z,1.80
2018-06-29T06:08:47.759Z,1.80
2018-06-29T06:09:47.705Z,1.80
2018-06-29T06:10:47.767Z,1.80
2018-06-29T06:11:47.715Z,1.80
2018-06-29T06:12:47.805Z,1.80
2018-06-29T06:13:47.834Z,1.80
2018-06-29T06:14:47.789Z,1.80
2018-06-29T06:15:47.833Z,1.80
2018-06-29T06:16:47.726Z,1.80
2018-06-29T06:17:47.745Z,2.00
2018-06-29T06:18:47.706Z,2.00
2018-06-29T06:19:47.732Z,2.00
2018-06-29T06:20:47.790Z,2.00
2018-06-29T06:21:47.671Z,2.00
2018-06-29T06:22:47.782Z,2.00
2018-06-29T06:23:47.709Z,2.00
2018-06-29T06:24:47.742Z,2.00
2018-06-29T06:25:47.678Z,2.00
2018-06-29T06:26:47.768Z,2.00
2018-06-29T06:27:47.736Z,2.30
2018-06-29T06:28:47.739Z,2.30
2018-06-29T06:29:47.723Z,2.30
2018-06-29T06:30:47.740Z,2.30
2018-06-29T06:31:47.817Z,2.30
2018-06-29T06:32:47.726Z,2.30
2018-06-29T06:33:47.848Z,2.30
2018-06-29T06:34:47.860Z,2.30
2018-06-29T06:35:47.814Z,2.30
2018-06-29T06:36:47.842Z,2.30
2018-06-29T06:37:47.821Z,1.80
2018-06-29T06:38:47.846Z,1.80
2018-06-29T06:39:47.723Z,1.80
2018-06-29T06:40:47.862Z,1.80
2018-06-29T06:41:47.761Z,1.80
2018-06-29T06:42:47.859Z,1.80
2018-06-29T06:43:47.806Z,1.80
2018-06-29T06:44:47.847Z,1.80
2018-06-29T06:45:47.831Z,1.80
2018-06-29T06:46:47.870Z,1.80
2018-06-29T06:47:47.814Z,1.70
2018-06-29T06:48:47.760Z,1.70
2018-06-29T06:49:47.731Z,1.70
2018-06-29T06:50:47.762Z,1.70
2018-06-29T06:51:47.819Z,1.70
2018-06-29T06:52:47.821Z,1.70
2018-06-29T06:53:47.824Z,1.70
2018-06-29T06:54:47.824Z,1.70
2018-06-29T06:55:47.735Z,1.70
2018-06-29T06:56:47.818Z,1.70
2018-06-29T06:57:47.835Z,1.60
2018-06-29T06:58:47.779Z,1.60
2018-06-29T06:59:47.836Z,1.60
2018-06-29T07:00:47.835Z,1.60
2018-06-29T07:01:47.835Z,1.60
2018-06-29T07:02:47.835Z,1.60
2018-06-29T07:03:47.770Z,1.60
2018-06-29T07:04:47.842Z,1.60
2018-06-29T07:05:47.776Z,1.60
2018-06-29T07:06:47.840Z,1.60
2018-06-29T07:07:47.800Z,2.20
2018-06-29T07:08:47.841Z,2.20
2018-06-29T07:09:47.843Z,2.20
2018-06-29T07:10:47.742Z,2.20
2018-06-29T07:11:47.824Z,2.20
2018-06-29T07:12:47.902Z,2.20
2018-06-29T07:13:47.845Z,2.20
2018-06-29T07:14:47.825Z,2.20
2018-06-29T07:15:47.815Z,2.20
2018-06-29T07:16:47.824Z,2.20
2018-06-29T07:17:47.825Z,1.50
2018-06-29T07:18:47.822Z,1.50
2018-06-29T07:19:47.892Z,1.50
2018-06-29T07:20:47.886Z,1.50
2018-06-29T07:21:47.806Z,1.50
2018-06-29T07:22:47.852Z,1.50
2018-06-29T07:23:47.880Z,1.50
2018-06-29T07:24:47.881Z,1.50
2018-06-29T07:25:47.891Z,1.50
2018-06-29T07:26:47.824Z,1.50
2018-06-29T07:27:47.850Z,2.20
2018-06-29T07:28:47.816Z,2.20
2018-06-29T07:29:47.854Z,2.20
2018-06-29T07:30:47.834Z,2.20
2018-06-29T07:31:47.886Z,2.20
2018-06-29T07:32:47.823Z,2.20
2018-06-29T07:33:47.764Z,2.20
2018-06-29T07:34:47.839Z,2.20
2018-06-29T07:35:47.817Z,2.20
2018-06-29T07:36:47.766Z,2.20
2018-06-29T07:37:47.858Z,1.90
2018-06-29T07:38:47.824Z,1.90
2018-06-29T07:39:47.761Z,1.90
2018-06-29T07:40:47.863Z,1.90
2018-06-29T07:41:47.859Z,1.90
2018-06-29T07:42:47.824Z,1.90
2018-06-29T07:43:47.907Z,1.90
2018-06-29T07:44:47.890Z,1.90
2018-06-29T07:45:47.826Z,1.90
2018-06-29T07:46:47.882Z,1.90
2018-06-29T07:47:47.826Z,1.80
2018-06-29T07:48:47.828Z,1.80
2018-06-29T07:49:47.835Z,1.80
2018-06-29T07:50:47.908Z,1.80
2018-06-29T07:51:47.838Z,1.80
2018-06-29T07:52:47.900Z,1.80
2018-06-29T07:53:47.851Z,1.80
2018-06-29T07:54:47.831Z,1.80
2018-06-29T07:55:47.798Z,1.80
2018-06-29T07:56:47.897Z,1.80
2018-06-29T07:57:47.864Z,2.00
2018-06-29T07:58:47.841Z,2.00
2018-06-29T07:59:47.764Z,2.00
2018-06-29T08:00:47.839Z,2.00
2018-06-29T08:01:47.870Z,2.00
2018-06-29T08:02:47.967Z,2.00
2018-06-29T08:03:47.915Z,2.00
2018-06-29T08:04:47.785Z,2.00
2018-06-29T08:05:47.832Z,2.00
2018-06-29T08:06:47.838Z,2.00
2018-06-29T08:07:47.814Z,3.30
2018-06-29T08:08:47.879Z,3.30
2018-06-29T08:09:47.814Z,3.30
2018-06-29T08:10:47.886Z,3.30
2018-06-29T08:11:47.872Z,3.30
2018-06-29T08:12:47.815Z,3.30
2018-06-29T08:13:47.883Z,3.30
2018-06-29T08:14:47.817Z,3.30
2018-06-29T08:15:47.819Z,3.30
2018-06-29T08:16:47.959Z,3.30
2018-06-29T08:17:47.841Z,1.80
2018-06-29T08:18:47.966Z,1.80
2018-06-29T08:19:47.826Z,1.80
2018-06-29T08:20:47.868Z,1.80
2018-06-29T08:21:47.854Z,1.80
2018-06-29T08:22:47.928Z,1.80
2018-06-29T08:23:47.919Z,1.80
2018-06-29T08:24:47.918Z,1.80
2018-06-29T08:25:47.853Z,1.80
2018-06-29T08:26:47.927Z,1.80
2018-06-29T08:27:47.919Z,1.80
2018-06-29T08:28:47.929Z,1.80
2018-06-29T08:29:47.900Z,1.80
2018-06-29T08:30:47.831Z,1.80
2018-06-29T08:31:47.897Z,1.80
2018-06-29T08:32:47.830Z,1.80
2018-06-29T08:33:47.899Z,1.80
2018-06-29T08:34:47.831Z,1.80
2018-06-29T08:35:47.909Z,1.80
2018-06-29T08:36:47.832Z,1.80
2018-06-29T08:37:47.899Z,1.80
2018-06-29T08:38:47.864Z,2.99
2018-06-29T08:39:47.943Z,2.99
2018-06-29T08:40:47.861Z,2.99
2018-06-29T08:41:47.939Z,2.99
2018-06-29T08:42:47.941Z,2.99
2018-06-29T08:43:47.877Z,2.99
2018-06-29T08:44:47.928Z,2.99
2018-06-29T08:45:47.938Z,2.99
2018-06-29T08:46:47.964Z,2.99
2018-06-29T08:47:47.869Z,2.99
2018-06-29T08:48:47.882Z,1.80
2018-06-29T08:49:47.817Z,1.80
2018-06-29T08:50:47.870Z,1.80
2018-06-29T08:51:47.969Z,1.80
2018-06-29T08:52:47.888Z,1.80
2018-06-29T08:53:47.908Z,1.80
2018-06-29T08:54:47.876Z,1.80
2018-06-29T08:55:47.912Z,1.80
2018-06-29T08:56:47.912Z,1.80
2018-06-29T08:57:47.953Z,1.80
2018-06-29T08:58:47.847Z,1.90
2018-06-29T08:59:47.938Z,1.90
2018-06-29T09:00:47.848Z,1.90
2018-06-29T09:01:47.853Z,1.90
2018-06-29T09:02:47.852Z,1.90
2018-06-29T09:03:47.848Z,1.90
2018-06-29T09:04:47.940Z,1.90
2018-06-29T09:05:47.929Z,1.90
2018-06-29T09:06:47.851Z,1.90
2018-06-29T09:07:47.923Z,1.90
2018-06-29T09:08:47.954Z,1.80
2018-06-29T09:09:47.892Z,1.80
2018-06-29T09:10:47.886Z,1.80
2018-06-29T09:11:47.861Z,1.80
2018-06-29T09:12:47.833Z,1.80
2018-06-29T09:13:47.966Z,1.80
2018-06-29T09:14:47.822Z,1.80
2018-06-29T09:15:47.900Z,1.80
2018-06-29T09:16:47.928Z,1.80
2018-06-29T09:17:47.931Z,1.80
2018-06-29T09:18:47.883Z,1.90
2018-06-29T09:19:47.964Z,1.90
2018-06-29T09:20:47.890Z,1.90
2018-06-29T09:21:47.902Z,1.90
2018-06-29T09:22:47.967Z,1.90
2018-06-29T09:23:47.902Z,1.90
2018-06-29T09:24:47.835Z,1.90
2018-06-29T09:25:47.943Z,1.90
2018-06-29T09:26:47.929Z,1.90
2018-06-29T09:27:47.908Z,1.90
2018-06-29T09:28:47.955Z,2.99
2018-06-29T09:29:47.911Z,2.99
2018-06-29T09:30:47.832Z,2.99
2018-06-29T09:31:47.931Z,2.99
2018-06-29T09:32:47.920Z,2.99
2018-06-29T09:33:47.907Z,2.99
2018-06-29T09:34:47.967Z,2.99
2018-06-29T09:35:47.847Z,2.99
2018-06-29T09:36:47.911Z,2.99
2018-06-29T09:37:47.863Z,2.99
2018-06-29T09:38:47.961Z,1.90
2018-06-29T09:39:47.866Z,1.90
2018-06-29T09:40:47.970Z,1.90
2018-06-29T09:41:47.944Z,1.90
2018-06-29T09:42:47.940Z,1.90
2018-06-29T09:43:47.944Z,1.90
2018-06-29T09:44:47.942Z,1.90
2018-06-29T09:45:47.908Z,1.90
2018-06-29T09:46:47.855Z,1.90
2018-06-29T09:47:47.897Z,1.90
2018-06-29T09:48:47.905Z,1.90
2018-06-29T09:49:47.949Z,1.90
2018-06-29T09:50:47.947Z,1.90
2018-06-29T09:51:47.949Z,1.90
2018-06-29T09:52:47.897Z,1.90
2018-06-29T09:53:47.885Z,1.90
2018-06-29T09:54:47.951Z,1.90
2018-06-29T09:55:47.953Z,1.90
2018-06-29T09:56:48.041Z,1.90
2018-06-29T09:57:47.954Z,1.90
2018-06-29T09:58:47.890Z,1.90
2018-06-29T09:59:47.977Z,1.90
2018-06-29T10:00:47.958Z,1.90
2018-06-29T10:01:47.886Z,1.90
2018-06-29T10:02:47.891Z,1.90
2018-06-29T10:03:47.957Z,1.90
2018-06-29T10:04:47.891Z,1.90
2018-06-29T10:05:47.961Z,1.90
2018-06-29T10:06:47.960Z,1.90
2018-06-29T10:07:47.895Z,1.90
2018-06-29T10:08:47.936Z,1.80
2018-06-29T10:09:47.939Z,1.80
2018-06-29T10:10:47.986Z,1.80
2018-06-29T10:11:47.859Z,1.80
2018-06-29T10:12:47.946Z,1.80
2018-06-29T10:13:47.902Z,1.80
2018-06-29T10:14:47.938Z,1.80
2018-06-29T10:15:47.992Z,1.80
2018-06-29T10:16:47.931Z,1.80
2018-06-29T10:17:47.998Z,1.80
2018-06-29T10:18:47.877Z,1.70
2018-06-29T10:19:48.156Z,1.70
2018-06-29T10:20:47.935Z,1.70
2018-06-29T10:21:47.939Z,1.70
2018-06-29T10:22:47.913Z,1.70
2018-06-29T10:23:47.991Z,1.70
2018-06-29T10:24:47.874Z,1.70
2018-06-29T10:25:48.000Z,1.70
2018-06-29T10:26:48.002Z,1.70
2018-06-29T10:27:47.974Z,1.70
2018-06-29T10:28:47.926Z,2.99
2018-06-29T10:29:47.996Z,2.99
2018-06-29T10:30:48.031Z,2.99
2018-06-29T10:31:47.997Z,2.99
2018-06-29T10:32:48.032Z,2.99
2018-06-29T10:33:48.016Z,2.99
2018-06-29T10:34:47.961Z,2.99
2018-06-29T10:35:48.018Z,2.99
2018-06-29T10:36:48.052Z,2.99
2018-06-29T10:37:47.980Z,2.99
2018-06-29T10:38:47.920Z,1.70
2018-06-29T10:39:47.957Z,1.70
2018-06-29T10:40:48.016Z,1.70
2018-06-29T10:41:47.936Z,1.70
2018-06-29T10:42:47.893Z,1.70
2018-06-29T10:43:47.954Z,1.70
2018-06-29T10:44:47.921Z,1.70
2018-06-29T10:45:48.017Z,1.70
2018-06-29T10:46:47.965Z,1.70
2018-06-29T10:47:48.018Z,1.70
2018-06-29T10:48:47.920Z,1.60
2018-06-29T10:49:47.987Z,1.60
2018-06-29T10:50:47.924Z,1.60
2018-06-29T10:51:47.990Z,1.60
2018-06-29T10:52:47.993Z,1.60
2018-06-29T10:53:47.993Z,1.60
2018-06-29T10:54:48.027Z,1.60
2018-06-29T10:55:47.995Z,1.60
2018-06-29T10:56:47.927Z,1.60
2018-06-29T10:57:47.997Z,1.60
2018-06-29T10:58:47.905Z,1.90
2018-06-29T10:59:47.969Z,1.90
2018-06-29T11:00:48.030Z,1.90
2018-06-29T11:01:47.978Z,1.90
2018-06-29T11:02:47.999Z,1.90
2018-06-29T11:03:47.917Z,1.90
2018-06-29T11:04:47.968Z,1.90
2018-06-29T11:05:48.003Z,1.90
2018-06-29T11:06:48.032Z,1.90
2018-06-29T11:07:47.932Z,1.90
2018-06-29T11:08:48.005Z,1.80
2018-06-29T11:09:48.001Z,1.80
2018-06-29T11:10:48.054Z,1.80
2018-06-29T11:11:48.036Z,1.80
2018-06-29T11:12:47.926Z,1.80
2018-06-29T11:13:47.944Z,1.80
2018-06-29T11:14:48.069Z,1.80
2018-06-29T11:15:47.932Z,1.80
2018-06-29T11:16:47.982Z,1.80
2018-06-29T11:17:48.035Z,1.80
2018-06-29T11:18:48.010Z,1.80
2018-06-29T11:19:47.941Z,1.80
2018-06-29T11:20:48.013Z,1.80
2018-06-29T11:21:47.971Z,1.80
2018-06-29T11:22:47.946Z,1.80
2018-06-29T11:23:48.012Z,1.80
2018-06-29T11:24:47.946Z,1.80
2018-06-29T11:25:47.978Z,1.80
2018-06-29T11:26:48.022Z,1.80
2018-06-29T11:27:47.960Z,1.80
2018-06-29T11:28:47.952Z,1.60
2018-06-29T11:29:47.950Z,1.60
2018-06-29T11:30:48.022Z,1.60
2018-06-29T11:31:47.946Z,1.60
2018-06-29T11:32:48.017Z,1.60
2018-06-29T11:33:47.949Z,1.60
2018-06-29T11:34:47.952Z,1.60
2018-06-29T11:35:48.028Z,1.60
2018-06-29T11:36:48.085Z,1.60
2018-06-29T11:37:47.955Z,1.60
2018-06-29T11:38:48.089Z,1.60
2018-06-29T11:39:48.030Z,1.60
2018-06-29T11:40:48.049Z,1.60
2018-06-29T11:41:48.024Z,1.60
2018-06-29T11:42:47.980Z,1.60
2018-06-29T11:43:48.070Z,1.60
2018-06-29T11:44:47.924Z,1.60
2018-06-29T11:45:47.986Z,1.60
2018-06-29T11:46:47.930Z,1.60
2018-06-29T11:47:48.003Z,1.60
2018-06-29T11:48:48.020Z,1.90
2018-06-29T11:49:47.938Z,1.90
2018-06-29T11:50:47.962Z,1.90
2018-06-29T11:51:47.934Z,1.90
2018-06-29T11:52:47.980Z,1.90
2018-06-29T11:53:47.939Z,1.90
2018-06-29T11:54:47.937Z,1.90
2018-06-29T11:55:47.966Z,1.90
2018-06-29T11:56:47.939Z,1.90
2018-06-29T11:57:47.989Z,1.90
2018-06-29T11:58:47.936Z,1.60
2018-06-29T11:59:48.035Z,1.60
2018-06-29T12:00:48.060Z,1.60
2018-06-29T12:01:48.054Z,1.60
2018-06-29T12:02:48.078Z,1.60
2018-06-29T12:03:47.958Z,1.60
2018-06-29T12:04:48.039Z,1.60
2018-06-29T12:05:47.964Z,1.60
2018-06-29T12:06:48.080Z,1.60
2018-06-29T12:07:47.961Z,1.60
2018-06-29T12:08:47.939Z,1.80
2018-06-29T12:09:47.951Z,1.80
2018-06-29T12:10:48.043Z,1.80
2018-06-29T12:11:47.972Z,1.80
2018-06-29T12:12:48.020Z,1.80
2018-06-29T12:13:48.001Z,1.80
2018-06-29T12:14:48.050Z,1.80
2018-06-29T12:15:48.008Z,1.80
2018-06-29T12:16:48.048Z,1.80
2018-06-29T12:17:48.024Z,1.80
2018-06-29T12:18:48.092Z,1.40
2018-06-29T12:19:48.046Z,1.40
2018-06-29T12:20:48.076Z,1.40
2018-06-29T12:21:47.975Z,1.40
2018-06-29T12:22:47.991Z,1.40
2018-06-29T12:23:48.051Z,1.40
2018-06-29T12:24:47.991Z,1.40
2018-06-29T12:25:48.080Z,1.40
2018-06-29T12:26:48.053Z,1.40
2018-06-29T12:27:47.950Z,1.40
2018-06-29T12:28:47.991Z,1.40
2018-06-29T12:29:48.093Z,1.40
2018-06-29T12:30:48.053Z,1.40
2018-06-29T12:31:47.991Z,1.40
2018-06-29T12:32:47.960Z,1.40
2018-06-29T12:33:47.990Z,1.40
2018-06-29T12:34:48.061Z,1.40
2018-06-29T12:35:48.059Z,1.40
2018-06-29T12:36:48.062Z,1.40
2018-06-29T12:37:48.001Z,1.40
2018-06-29T12:38:48.019Z,1.60
2018-06-29T12:39:48.096Z,1.60
2018-06-29T12:40:48.066Z,1.60
2018-06-29T12:41:48.003Z,1.60
2018-06-29T12:42:48.058Z,1.60
2018-06-29T12:43:48.047Z,1.60
2018-06-29T12:44:48.093Z,1.60
2018-06-29T12:45:48.026Z,1.60
2018-06-29T12:46:48.082Z,1.60
2018-06-29T12:47:48.099Z,1.60
2018-06-29T12:48:47.999Z,2.00
2018-06-29T12:49:48.055Z,2.00
2018-06-29T12:50:47.979Z,2.00
2018-06-29T12:51:47.979Z,2.00
2018-06-29T12:52:47.979Z,2.00
2018-06-29T12:53:48.009Z,2.00
2018-06-29T12:54:48.076Z,2.00
2018-06-29T12:55:47.980Z,2.00
2018-06-29T12:56:48.071Z,2.00
2018-06-29T12:57:48.067Z,2.00
2018-06-29T12:58:47.978Z,1.50
2018-06-29T12:59:48.162Z,1.50
2018-06-29T13:00:48.047Z,1.50
2018-06-29T13:01:48.100Z,1.50
2018-06-29T13:02:48.050Z,1.50
2018-06-29T13:03:48.057Z,1.50
2018-06-29T13:04:48.103Z,1.50
2018-06-29T13:05:48.082Z,1.50
2018-06-29T13:06:48.044Z,1.50
2018-06-29T13:07:48.111Z,1.50
2018-06-29T13:08:48.023Z,1.60
2018-06-29T13:09:48.096Z,1.60
2018-06-29T13:10:48.088Z,1.60
2018-06-29T13:11:48.048Z,1.60
2018-06-29T13:12:48.121Z,1.60
2018-06-29T13:13:48.160Z,1.60
2018-06-29T13:14:48.057Z,1.60
2018-06-29T13:15:48.115Z,1.60
2018-06-29T13:16:47.995Z,1.60
2018-06-29T13:17:48.056Z,1.60
2018-06-29T13:18:48.099Z,1.30